createdAt,value
2022-10-09T00:01:28.108Z,69.54
2022-10-09T00:03:57.749Z,69.36
2022-10-09T00:06:30.132Z,69.19
2022-10-09T00:08:58.675Z,68.33
2022-10-09T00:11:29.534Z,68.35
2022-10-09T00:13:58.653Z,68.38
2022-10-09T00:16:27.579Z,68.11
2022-10-09T00:18:56.464Z,68.15
2022-10-09T00:21:26.452Z,67.91
2022-10-09T00:23:59.024Z,67.76
2022-10-09T00:26:28.004Z,67.37
2022-10-09T00:28:57.037Z,67.68
2022-10-09T00:31:25.879Z,67.37
2022-10-09T00:33:54.365Z,67.58
2022-10-09T00:36:24.537Z,68.06
2022-10-09T00:38:54.648Z,67.21
2022-10-09T00:41:26.858Z,67.91
2022-10-09T00:43:57.417Z,67.88
2022-10-09T00:46:31.446Z,68.05
2022-10-09T00:49:10.427Z,67.97
2022-10-09T00:51:39.236Z,68.48
2022-10-09T00:54:13.043Z,68.79
2022-10-09T00:56:43.046Z,69.02
2022-10-09T00:59:12.879Z,69.37
2022-10-09T01:01:42.366Z,69.25
2022-10-09T01:04:10.741Z,69.64
2022-10-09T01:06:55.096Z,68.62
2022-10-09T01:09:28.870Z,69.37
2022-10-09T01:12:05.548Z,69.18
2022-10-09T01:14:39.717Z,69.40
2022-10-09T01:17:16.643Z,68.93
2022-10-09T01:19:56.425Z,69.44
2022-10-09T01:22:41.246Z,69.22
2022-10-09T01:25:12.509Z,69.35
2022-10-09T01:27:42.502Z,70.60
2022-10-09T01:30:13.602Z,70.60
2022-10-09T01:32:45.491Z,70.67
2022-10-09T01:35:15.692Z,72.27
2022-10-09T01:37:47.052Z,70.50
2022-10-09T01:40:18.396Z,69.88
2022-10-09T01:42:48.428Z,70.99
2022-10-09T01:45:17.916Z,70.65
2022-10-09T01:47:46.483Z,70.94
2022-10-09T01:50:23.142Z,70.12
2022-10-09T01:52:54.506Z,69.61
2022-10-09T01:55:37.396Z,69.90
2022-10-09T01:58:16.408Z,69.43
2022-10-09T02:00:48.353Z,69.50
2022-10-09T02:03:17.810Z,69.63
2022-10-09T02:05:49.601Z,69.44
2022-10-09T02:08:20.313Z,68.60
2022-10-09T02:10:50.712Z,70.01
2022-10-09T02:13:22.707Z,69.27
2022-10-09T02:15:54.839Z,68.92
2022-10-09T02:18:30.778Z,68.93
2022-10-09T02:21:04.296Z,69.72
2022-10-09T02:23:33.227Z,69.68
2022-10-09T02:26:01.636Z,69.79
2022-10-09T02:28:31.668Z,69.58
2022-10-09T02:31:05.445Z,69.29
2022-10-09T02:33:34.726Z,69.62
2022-10-09T02:36:04.414Z,68.99
2022-10-09T02:38:32.570Z,69.71
2022-10-09T02:41:01.418Z,70.19
2022-10-09T02:43:31.349Z,69.97
2022-10-09T02:45:59.588Z,69.61
2022-10-09T02:48:27.739Z,70.04
2022-10-09T02:50:56.103Z,69.03
2022-10-09T02:53:24.673Z,69.77
2022-10-09T02:55:53.060Z,69.61
2022-10-09T02:58:21.516Z,69.52
2022-10-09T03:00:51.985Z,69.51
2022-10-09T03:03:21.251Z,69.13
2022-10-09T03:05:49.659Z,69.11
2022-10-09T03:08:18.935Z,68.82
2022-10-09T03:10:47.475Z,69.05
2022-10-09T03:13:15.595Z,68.83
2022-10-09T03:15:43.948Z,69.53
2022-10-09T03:18:13.615Z,69.52
2022-10-09T03:20:42.019Z,70.14
2022-10-09T03:23:10.328Z,70.14
2022-10-09T03:25:38.465Z,69.67
2022-10-09T03:28:06.637Z,69.38
2022-10-09T03:30:43.023Z,68.87
2022-10-09T03:33:11.244Z,68.65
2022-10-09T03:35:41.986Z,69.16
2022-10-09T03:38:10.181Z,69.33
2022-10-09T03:40:38.523Z,69.33
2022-10-09T03:43:06.776Z,70.06
2022-10-09T03:45:35.495Z,69.22
2022-10-09T03:48:03.605Z,69.09
2022-10-09T03:50:32.019Z,69.93
2022-10-09T03:53:01.649Z,68.93
2022-10-09T03:55:29.888Z,69.17
2022-10-09T03:57:58.139Z,68.82
2022-10-09T04:00:26.690Z,68.85
2022-10-09T04:02:54.849Z,68.84
2022-10-09T04:05:23.787Z,68.89
2022-10-09T04:07:51.950Z,69.40
2022-10-09T04:10:21.530Z,68.79
2022-10-09T04:12:49.891Z,68.94
2022-10-09T04:15:18.461Z,68.82
2022-10-09T04:17:46.631Z,69.36
2022-10-09T04:20:14.761Z,69.97
2022-10-09T04:22:42.935Z,69.66
2022-10-09T04:25:11.122Z,70.86
2022-10-09T04:27:40.826Z,70.07
2022-10-09T04:30:10.912Z,70.93
2022-10-09T04:33:05.507Z,72.06
2022-10-09T04:35:35.210Z,72.89
2022-10-09T04:38:03.244Z,72.26
2022-10-09T04:40:31.415Z,71.75
2022-10-09T04:43:00.931Z,72.54
2022-10-09T04:45:29.653Z,72.07
2022-10-09T04:47:57.776Z,72.19
2022-10-09T04:50:26.198Z,72.69
2022-10-09T04:53:00.146Z,72.01
2022-10-09T04:55:28.415Z,71.34
2022-10-09T04:57:56.623Z,71.26
2022-10-09T05:00:26.364Z,70.76
2022-10-09T05:02:54.779Z,70.65
2022-10-09T05:05:23.589Z,70.70
2022-10-09T05:07:52.093Z,69.83
2022-10-09T05:10:20.342Z,69.90
2022-10-09T05:12:48.577Z,69.53
2022-10-09T05:15:17.019Z,69.66
2022-10-09T05:17:46.496Z,68.69
2022-10-09T05:20:14.697Z,68.67
2022-10-09T05:22:45.186Z,69.16
2022-10-09T05:25:13.586Z,69.77
2022-10-09T05:27:42.022Z,70.22
2022-10-09T05:30:11.585Z,70.97
2022-10-09T05:32:39.698Z,71.40
2022-10-09T05:35:10.396Z,71.99
2022-10-09T05:37:38.539Z,72.00
2022-10-09T05:40:08.135Z,71.80
2022-10-09T05:42:36.563Z,71.33
2022-10-09T05:45:05.186Z,71.40
2022-10-09T05:47:33.269Z,71.14
2022-10-09T05:50:01.595Z,71.04
2022-10-09T05:52:31.290Z,70.60
2022-10-09T05:54:59.918Z,69.87
2022-10-09T05:57:29.249Z,70.74
2022-10-09T05:59:57.471Z,70.38
2022-10-09T06:02:26.128Z,70.62
2022-10-09T06:04:54.233Z,69.75
2022-10-09T06:07:22.429Z,70.89
2022-10-09T06:09:52.067Z,70.29
2022-10-09T06:12:20.085Z,70.82
2022-10-09T06:14:48.121Z,71.30
2022-10-09T06:17:16.342Z,71.75
2022-10-09T06:19:44.568Z,72.01
2022-10-09T06:22:12.949Z,71.51
2022-10-09T06:24:41.169Z,70.46
2022-10-09T06:27:13.192Z,70.19
2022-10-09T06:29:41.578Z,69.00
2022-10-09T06:32:09.929Z,68.80
2022-10-09T06:34:38.202Z,68.79
2022-10-09T06:37:06.285Z,68.40
2022-10-09T06:39:34.535Z,68.25
2022-10-09T06:42:04.123Z,68.10
2022-10-09T06:44:44.541Z,67.84
2022-10-09T06:47:12.710Z,67.41
2022-10-09T06:49:41.109Z,66.56
2022-10-09T06:52:09.698Z,66.76
2022-10-09T06:54:38.238Z,66.81
2022-10-09T06:57:06.379Z,66.46
2022-10-09T06:59:34.526Z,69.21
2022-10-09T07:02:04.661Z,50.07
2022-10-09T07:04:32.846Z,37.81
2022-10-09T07:07:01.262Z,31.52
2022-10-09T07:09:29.466Z,25.78
2022-10-09T07:11:57.703Z,23.84
2022-10-09T07:14:26.264Z,24.38
2022-10-09T07:16:54.805Z,24.60
2022-10-09T07:19:24.527Z,24.56
2022-10-09T07:21:53.047Z,25.11
2022-10-09T07:24:21.444Z,23.51
2022-10-09T07:26:50.108Z,26.88
2022-10-09T07:29:19.727Z,24.96
2022-10-09T07:31:49.938Z,24.26
2022-10-09T07:34:18.593Z,23.46
2022-10-09T07:36:48.207Z,23.80
2022-10-09T07:39:18.987Z,23.42
2022-10-09T07:41:47.789Z,24.08
2022-10-09T07:44:16.150Z,21.73
2022-10-09T07:46:44.445Z,20.99
2022-10-09T07:49:12.771Z,20.91
2022-10-09T07:51:40.731Z,19.10
2022-10-09T07:54:10.425Z,18.12
2022-10-09T07:56:39.136Z,17.83
2022-10-09T07:59:12.783Z,15.52
2022-10-09T08:01:42.213Z,18.01
2022-10-09T08:04:10.821Z,18.59
2022-10-09T08:06:39.028Z,17.93
2022-10-09T08:09:08.313Z,19.80
2022-10-09T08:11:40.859Z,19.36
2022-10-09T08:14:18.082Z,18.92
2022-10-09T08:16:47.943Z,17.22
2022-10-09T08:19:16.632Z,18.16
2022-10-09T08:21:45.010Z,21.41
2022-10-09T08:24:13.432Z,22.38
2022-10-09T08:26:44.314Z,20.23
2022-10-09T08:29:16.195Z,20.24
2022-10-09T08:31:44.629Z,20.51
2022-10-09T08:34:13.014Z,21.51
2022-10-09T08:36:41.212Z,20.29
2022-10-09T08:39:09.439Z,21.32
2022-10-09T08:41:46.439Z,21.32
2022-10-09T08:44:20.268Z,22.42
2022-10-09T08:46:58.346Z,18.04
2022-10-09T08:49:32.466Z,23.65
2022-10-09T08:52:13.995Z,27.94
2022-10-09T08:54:42.465Z,26.96
2022-10-09T09:00:16.357Z,30.86
2022-10-09T09:03:02.895Z,27.92
2022-10-09T09:05:40.954Z,25.52
2022-10-09T09:08:27.471Z,23.30
2022-10-09T09:11:12.295Z,22.48
2022-10-09T09:13:51.170Z,21.02
2022-10-09T09:16:29.971Z,21.77
2022-10-09T09:19:14.333Z,21.24
2022-10-09T09:21:49.082Z,20.64
2022-10-09T09:24:21.261Z,21.45
2022-10-09T09:26:51.844Z,21.87
2022-10-09T09:29:24.854Z,19.99
2022-10-09T09:31:58.477Z,22.43
2022-10-09T09:34:35.760Z,23.77
2022-10-09T09:37:04.083Z,23.50
2022-10-09T09:40:24.300Z,25.58
2022-10-09T09:42:23.188Z,25.91
2022-10-09T09:44:59.070Z,25.74
2022-10-09T09:47:34.699Z,24.26
2022-10-09T09:50:04.903Z,22.82
2022-10-09T09:52:38.837Z,22.64
2022-10-09T09:55:08.010Z,25.07
2022-10-09T09:57:41.372Z,26.68
2022-10-09T10:00:20.813Z,27.95
2022-10-09T10:02:49.471Z,27.78
2022-10-09T10:05:23.207Z,26.44
2022-10-09T10:07:51.998Z,28.71
2022-10-09T10:10:25.588Z,29.17
2022-10-09T10:12:58.257Z,31.10
2022-10-09T10:15:29.540Z,31.15
2022-10-09T10:18:03.295Z,30.31
2022-10-09T10:20:33.306Z,30.42
2022-10-09T10:23:02.226Z,32.02
2022-10-09T10:25:34.834Z,32.84
2022-10-09T10:28:07.068Z,34.95
2022-10-09T10:31:04.372Z,40.98
2022-10-09T10:33:35.368Z,38.56
2022-10-09T10:36:04.290Z,33.33
2022-10-09T10:38:37.070Z,33.41
2022-10-09T10:41:13.860Z,31.74
2022-10-09T10:43:45.097Z,28.83
2022-10-09T10:46:24.076Z,27.19
2022-10-09T10:48:52.423Z,27.92
2022-10-09T10:51:52.159Z,31.01
2022-10-09T10:54:31.745Z,33.92
2022-10-09T10:57:08.877Z,29.75
2022-10-09T10:59:40.857Z,29.62
2022-10-09T11:02:32.679Z,30.79
2022-10-09T11:05:13.866Z,29.74
2022-10-09T11:07:51.384Z,31.05
2022-10-09T11:10:29.156Z,31.11
2022-10-09T11:13:02.704Z,32.90
2022-10-09T11:15:38.701Z,31.43
2022-10-09T11:18:25.815Z,29.67
2022-10-09T11:21:06.677Z,29.81
2022-10-09T11:23:49.448Z,29.83
2022-10-09T11:26:27.149Z,31.71
2022-10-09T11:29:02.116Z,29.71
2022-10-09T11:31:36.681Z,32.24
2022-10-09T11:34:13.601Z,30.70
2022-10-09T11:36:44.096Z,29.83
2022-10-09T11:39:18.166Z,30.93
2022-10-09T11:41:48.796Z,31.94
2022-10-09T11:44:35.814Z,30.25
2022-10-09T11:47:11.554Z,29.50
2022-10-09T11:49:55.061Z,30.89
2022-10-09T11:52:31.623Z,30.43
2022-10-09T11:55:09.946Z,30.99
2022-10-09T11:57:38.471Z,28.72
2022-10-09T12:00:10.638Z,26.70
2022-10-09T12:02:39.727Z,28.93
2022-10-09T12:05:19.603Z,27.95
2022-10-09T12:07:48.175Z,28.81
2022-10-09T12:10:34.802Z,31.34
2022-10-09T12:13:05.831Z,30.38
2022-10-09T12:15:40.922Z,29.34
2022-10-09T12:18:18.270Z,30.25
2022-10-09T12:20:50.498Z,30.26
2022-10-09T12:23:31.059Z,33.02
2022-10-09T12:26:03.731Z,32.20
2022-10-09T12:28:36.863Z,32.43
2022-10-09T12:31:16.825Z,32.69
2022-10-09T12:33:50.673Z,31.58
2022-10-09T12:36:26.544Z,32.10
2022-10-09T12:39:00.080Z,30.83
2022-10-09T12:41:38.168Z,30.02
2022-10-09T12:44:23.486Z,32.68
2022-10-09T12:46:58.815Z,34.57
2022-10-09T12:49:33.508Z,33.02
2022-10-09T12:52:19.455Z,31.90
2022-10-09T12:54:53.533Z,30.01
2022-10-09T12:57:31.327Z,30.09
2022-10-09T13:00:04.932Z,33.80
2022-10-09T13:02:36.799Z,33.69
2022-10-09T13:05:06.209Z,32.59
2022-10-09T13:07:35.793Z,32.17
2022-10-09T13:10:08.342Z,31.95
2022-10-09T13:12:36.594Z,32.04
2022-10-09T13:15:06.946Z,33.20
2022-10-09T13:17:38.468Z,32.00
2022-10-09T13:20:26.907Z,31.11
2022-10-09T13:22:59.274Z,33.66
2022-10-09T13:25:31.163Z,35.24
2022-10-09T13:27:59.955Z,32.85
2022-10-09T13:30:54.502Z,31.21
2022-10-09T13:33:23.323Z,32.46
2022-10-09T13:35:51.591Z,31.20
2022-10-09T13:38:23.981Z,31.29
2022-10-09T13:40:54.063Z,32.42
2022-10-09T13:43:26.673Z,35.06
2022-10-09T13:45:55.820Z,32.22
2022-10-09T13:48:26.986Z,33.03
2022-10-09T13:50:59.334Z,32.05
2022-10-09T13:53:29.763Z,31.02
2022-10-09T13:56:00.821Z,31.16
2022-10-09T13:58:31.500Z,33.53
2022-10-09T14:01:00.469Z,35.34
2022-10-09T14:03:29.968Z,35.04
2022-10-09T14:06:04.613Z,34.76
2022-10-09T14:08:36.636Z,33.29
2022-10-09T14:11:06.779Z,33.50
2022-10-09T14:13:36.173Z,33.14
2022-10-09T14:16:06.325Z,35.36
2022-10-09T14:18:35.757Z,35.11
2022-10-09T14:21:14.650Z,32.85
2022-10-09T14:23:46.535Z,33.78
2022-10-09T14:26:14.888Z,35.60
2022-10-09T14:28:44.169Z,34.74
2022-10-09T14:31:14.629Z,33.24
2022-10-09T14:33:45.253Z,32.90
2022-10-09T14:36:16.999Z,32.57
2022-10-09T14:38:50.181Z,33.48
2022-10-09T14:41:20.547Z,33.41
2022-10-09T14:43:55.734Z,35.93
2022-10-09T14:46:27.330Z,35.26
2022-10-09T14:48:56.905Z,34.67
2022-10-09T14:51:28.159Z,36.03
2022-10-09T14:53:59.117Z,35.99
2022-10-09T14:56:28.952Z,35.32
2022-10-09T14:59:01.192Z,35.83
2022-10-09T15:01:32.714Z,33.55
2022-10-09T15:04:02.190Z,34.66
2022-10-09T15:06:30.826Z,33.98
2022-10-09T15:09:05.568Z,33.90
2022-10-09T15:11:35.913Z,34.76
2022-10-09T15:14:06.614Z,36.41
2022-10-09T15:16:37.365Z,38.04
2022-10-09T15:19:06.241Z,39.87
2022-10-09T15:21:36.395Z,39.26
2022-10-09T15:24:07.286Z,38.25
2022-10-09T15:26:37.021Z,39.20
2022-10-09T15:29:08.319Z,38.13
2022-10-09T15:31:40.036Z,39.23
2022-10-09T15:34:11.796Z,38.47
2022-10-09T15:36:44.509Z,37.71
2022-10-09T15:39:15.404Z,39.27
2022-10-09T15:41:45.271Z,39.83
2022-10-09T15:44:18.655Z,40.10
2022-10-09T15:46:49.784Z,39.30
2022-10-09T15:49:18.955Z,40.35
2022-10-09T15:51:48.935Z,40.60
2022-10-09T15:54:19.515Z,41.94
2022-10-09T15:56:49.137Z,42.29
2022-10-09T15:59:18.312Z,43.30
2022-10-09T16:01:46.697Z,44.65
2022-10-09T16:04:16.452Z,45.98
2022-10-09T16:06:46.776Z,46.47
2022-10-09T16:09:16.917Z,47.73
2022-10-09T16:11:47.450Z,49.05
2022-10-09T16:14:15.827Z,49.86
2022-10-09T16:16:46.083Z,50.73
2022-10-09T16:19:15.991Z,51.10
2022-10-09T16:21:45.660Z,52.25
2022-10-09T16:24:13.908Z,52.74
2022-10-09T16:26:42.784Z,53.28
2022-10-09T16:29:14.946Z,53.32
2022-10-09T16:31:45.309Z,53.99
2022-10-09T16:34:16.095Z,54.26
2022-10-09T16:36:46.386Z,54.98
2022-10-09T16:39:14.803Z,55.04
2022-10-09T16:41:43.574Z,55.11
2022-10-09T16:44:17.036Z,56.37
2022-10-09T16:46:46.064Z,57.13
2022-10-09T16:49:21.273Z,56.66
2022-10-09T16:51:53.115Z,57.50
2022-10-09T16:54:21.341Z,57.37
2022-10-09T16:56:50.478Z,57.42
2022-10-09T16:59:21.854Z,58.47
2022-10-09T17:01:52.392Z,58.37
2022-10-09T17:04:22.939Z,58.69
2022-10-09T17:06:52.691Z,58.84
2022-10-09T17:09:22.067Z,59.11
2022-10-09T17:11:50.599Z,59.84
2022-10-09T17:14:20.409Z,59.57
2022-10-09T17:16:49.077Z,59.49
2022-10-09T17:19:17.773Z,60.04
2022-10-09T17:21:46.448Z,60.74
2022-10-09T17:24:16.280Z,61.40
2022-10-09T17:26:46.340Z,60.92
2022-10-09T17:29:16.244Z,61.12
2022-10-09T17:31:47.845Z,60.97
2022-10-09T17:34:16.407Z,61.13
2022-10-09T17:36:46.268Z,61.31
2022-10-09T17:39:17.485Z,61.51
2022-10-09T17:41:47.473Z,62.18
2022-10-09T17:44:17.764Z,62.18
2022-10-09T17:46:47.441Z,62.50
2022-10-09T17:49:16.605Z,62.18
2022-10-09T17:51:45.166Z,62.51
2022-10-09T17:54:17.036Z,62.21
2022-10-09T17:56:47.262Z,62.57
2022-10-09T17:59:17.383Z,62.49
2022-10-09T18:01:48.782Z,62.60
2022-10-09T18:04:18.237Z,62.00
2022-10-09T18:06:47.854Z,62.64
2022-10-09T18:09:17.752Z,63.42
2022-10-09T18:11:47.344Z,63.86
2022-10-09T18:14:17.131Z,64.23
2022-10-09T18:16:47.267Z,63.51
2022-10-09T18:19:19.913Z,63.52
2022-10-09T18:21:50.535Z,63.60
2022-10-09T18:24:19.522Z,63.61
2022-10-09T18:26:48.165Z,62.96
2022-10-09T18:29:16.376Z,62.97
2022-10-09T18:31:45.780Z,63.67
2022-10-09T18:34:16.522Z,63.85
2022-10-09T18:36:46.266Z,64.20
2022-10-09T18:39:16.719Z,63.92
2022-10-09T18:41:47.109Z,63.57
2022-10-09T18:44:19.933Z,63.77
2022-10-09T18:46:50.574Z,64.28
2022-10-09T18:49:26.296Z,63.60
2022-10-09T18:51:55.904Z,63.70
2022-10-09T18:54:26.923Z,63.34
2022-10-09T18:56:56.047Z,63.65
2022-10-09T18:59:25.826Z,63.61
2022-10-09T19:01:54.161Z,63.71
2022-10-09T19:04:24.962Z,64.26
2022-10-09T19:06:55.550Z,63.00
2022-10-09T19:09:23.931Z,63.07
2022-10-09T19:11:53.503Z,62.53
2022-10-09T19:14:22.271Z,62.14
2022-10-09T19:16:50.797Z,63.94
2022-10-09T19:19:19.320Z,63.41
2022-10-09T19:21:50.769Z,63.57
2022-10-09T19:24:20.901Z,63.55
2022-10-09T19:26:50.670Z,64.48
2022-10-09T19:29:19.155Z,64.46
2022-10-09T19:31:50.462Z,64.10
2022-10-09T19:34:19.828Z,63.62
2022-10-09T19:36:52.387Z,63.88
2022-10-09T19:39:22.765Z,64.08
2022-10-09T19:41:52.943Z,63.53
2022-10-09T19:44:22.466Z,64.04
2022-10-09T19:46:52.112Z,63.89
2022-10-09T19:49:21.453Z,65.42
2022-10-09T19:51:51.438Z,65.89
2022-10-09T19:54:21.041Z,64.17
2022-10-09T19:56:50.212Z,64.16
2022-10-09T19:59:18.621Z,65.21
2022-10-09T20:01:48.461Z,65.63
2022-10-09T20:04:17.409Z,64.88
2022-10-09T20:06:47.676Z,65.92
2022-10-09T20:09:18.654Z,65.99
2022-10-09T20:11:48.303Z,66.36
2022-10-09T20:14:16.655Z,65.85
2022-10-09T20:16:46.128Z,65.51
2022-10-09T20:19:14.387Z,65.30
2022-10-09T20:21:42.335Z,65.54
2022-10-09T20:24:10.927Z,65.65
2022-10-09T20:26:43.322Z,65.24
2022-10-09T20:29:12.174Z,65.90
2022-10-09T20:31:41.393Z,64.84
2022-10-09T20:34:10.149Z,65.84
2022-10-09T20:36:40.459Z,66.10
2022-10-09T20:39:11.642Z,65.95
2022-10-09T20:41:43.148Z,65.10
2022-10-09T20:44:13.308Z,65.09
2022-10-09T20:46:42.787Z,64.31
2022-10-09T20:49:14.057Z,65.88
2022-10-09T20:51:43.754Z,65.66
2022-10-09T20:54:18.518Z,66.34
2022-10-09T20:56:49.852Z,66.12
2022-10-09T20:59:19.701Z,65.64
2022-10-09T21:02:08.212Z,65.19
2022-10-09T21:04:37.634Z,65.77
2022-10-09T21:07:06.146Z,65.96
2022-10-09T21:09:34.935Z,65.43
2022-10-09T21:14:59.697Z,65.67
2022-10-09T21:17:28.259Z,66.08
2022-10-09T21:19:58.195Z,66.02
2022-10-09T21:22:27.151Z,66.42
2022-10-09T21:24:55.912Z,66.06
2022-10-09T21:27:24.636Z,66.91
2022-10-09T21:29:53.067Z,66.29
2022-10-09T21:32:23.403Z,65.81
2022-10-09T21:34:52.399Z,66.90
2022-10-09T21:37:22.281Z,66.25
2022-10-09T21:39:51.616Z,65.93
2022-10-09T21:42:19.884Z,65.08
2022-10-09T21:44:49.059Z,65.54
2022-10-09T21:47:19.552Z,64.59
2022-10-09T21:49:51.007Z,64.16
2022-10-09T21:52:19.258Z,64.96
2022-10-09T21:54:47.897Z,64.27
2022-10-09T21:57:16.297Z,63.48
2022-10-09T21:59:44.680Z,63.66
2022-10-09T22:02:13.056Z,63.35
2022-10-09T22:04:41.414Z,63.45
2022-10-09T22:07:11.479Z,62.14
2022-10-09T22:09:40.211Z,63.34
2022-10-09T22:12:08.853Z,61.92
2022-10-09T22:14:37.591Z,61.69
2022-10-09T22:17:06.322Z,61.71
2022-10-09T22:19:34.746Z,62.39
2022-10-09T22:22:03.182Z,61.43
2022-10-09T22:24:33.137Z,61.30
2022-10-09T22:27:01.627Z,62.31
2022-10-09T22:29:30.000Z,62.40
2022-10-09T22:31:58.565Z,62.67
2022-10-09T22:34:26.963Z,62.85
2022-10-09T22:36:55.401Z,62.33
2022-10-09T22:39:24.234Z,62.82
2022-10-09T22:41:54.101Z,62.15
2022-10-09T22:44:22.609Z,61.98
2022-10-09T22:46:51.919Z,61.26
2022-10-09T22:49:20.418Z,61.16
2022-10-09T22:51:48.825Z,61.46
2022-10-09T22:54:19.023Z,61.66
2022-10-09T22:56:47.767Z,61.27
2022-10-09T22:59:19.389Z,61.65
2022-10-09T23:01:50.143Z,61.42
2022-10-09T23:04:20.391Z,61.54
2022-10-09T23:06:52.441Z,61.47
2022-10-09T23:09:21.835Z,62.10
2022-10-09T23:11:51.847Z,62.15
2022-10-09T23:14:21.694Z,62.32
2022-10-09T23:16:50.303Z,63.09
2022-10-09T23:19:19.091Z,63.01
2022-10-09T23:21:48.299Z,63.85
2022-10-09T23:24:18.054Z,62.39
2022-10-09T23:26:47.751Z,63.10
2022-10-09T23:29:18.095Z,63.39
2022-10-09T23:31:49.683Z,62.78
2022-10-09T23:34:18.256Z,63.21
2022-10-09T23:36:46.667Z,62.66
2022-10-09T23:39:15.115Z,61.85
2022-10-09T23:41:43.614Z,62.55
2022-10-09T23:44:12.112Z,62.69
2022-10-09T23:46:41.473Z,63.03
2022-10-09T23:49:12.092Z,63.13
2022-10-09T23:51:41.094Z,63.20
2022-10-09T23:54:10.039Z,62.79
2022-10-09T23:56:38.451Z,62.22
2022-10-09T23:59:08.056Z,62.28
